sensor_id;sensor_type;location;lat;lon;timestamp;temperature;humidity
56374;DHT22;58212;47.034;7.376;2023-01-30T00:01:38;-1.70;99.90
56374;DHT22;58212;47.034;7.376;2023-01-30T00:04:06;-1.60;99.90
56374;DHT22;58212;47.034;7.376;2023-01-30T00:06:33;-1.60;99.90
56374;DHT22;58212;47.034;7.376;2023-01-30T00:09:00;-1.70;99.90
56374;DHT22;58212;47.034;7.376;2023-01-30T00:11:27;-1.60;99.90
56374;DHT22;58212;47.034;7.376;2023-01-30T00:13:55;-1.50;99.90
56374;DHT22;58212;47.034;7.376;2023-01-30T00:16:23;-1.50;99.90
56374;DHT22;58212;47.034;7.376;2023-01-30T00:18:51;-1.50;99.90
56374;DHT22;58212;47.034;7.376;2023-01-30T00:21:18;-1.40;99.90
56374;DHT22;58212;47.034;7.376;2023-01-30T00:23:45;-1.30;99.90
56374;DHT22;58212;47.034;7.376;2023-01-30T00:26:12;-1.40;99.90
56374;DHT22;58212;47.034;7.376;2023-01-30T00:28:39;-1.40;99.90
56374;DHT22;58212;47.034;7.376;2023-01-30T00:31:07;-1.50;99.90
56374;DHT22;58212;47.034;7.376;2023-01-30T00:33:37;-1.40;99.90
56374;DHT22;58212;47.034;7.376;2023-01-30T00:36:05;-1.40;99.90
56374;DHT22;58212;47.034;7.376;2023-01-30T00:38:32;-1.40;99.90
56374;DHT22;58212;47.034;7.376;2023-01-30T00:41:00;-1.40;99.90
56374;DHT22;58212;47.034;7.376;2023-01-30T00:43:27;-1.50;99.90
56374;DHT22;58212;47.034;7.376;2023-01-30T00:46:18;-1.60;99.90
56374;DHT22;58212;47.034;7.376;2023-01-30T00:49:05;-1.50;99.90
56374;DHT22;58212;47.034;7.376;2023-01-30T00:51:33;-1.50;99.90
56374;DHT22;58212;47.034;7.376;2023-01-30T00:54:25;-1.40;99.90
56374;DHT22;58212;47.034;7.376;2023-01-30T00:56:52;-1.50;99.90
56374;DHT22;58212;47.034;7.376;2023-01-30T00:59:24;-1.60;99.90
56374;DHT22;58212;47.034;7.376;2023-01-30T01:01:54;-1.70;99.90
56374;DHT22;58212;47.034;7.376;2023-01-30T01:04:22;-1.80;99.90
56374;DHT22;58212;47.034;7.376;2023-01-30T01:06:49;-1.80;99.90
56374;DHT22;58212;47.034;7.376;2023-01-30T01:09:16;-1.70;99.90
56374;DHT22;58212;47.034;7.376;2023-01-30T01:11:43;-1.60;99.90
56374;DHT22;58212;47.034;7.376;2023-01-30T01:14:10;-1.60;99.90
56374;DHT22;58212;47.034;7.376;2023-01-30T01:16:38;-1.70;99.90
56374;DHT22;58212;47.034;7.376;2023-01-30T01:19:05;-1.90;99.90
56374;DHT22;58212;47.034;7.376;2023-01-30T01:21:58;-1.80;99.90
56374;DHT22;58212;47.034;7.376;2023-01-30T01:24:25;-1.70;99.90
56374;DHT22;58212;47.034;7.376;2023-01-30T01:26:53;-1.70;99.90
56374;DHT22;58212;47.034;7.376;2023-01-30T01:29:20;-1.70;99.90
56374;DHT22;58212;47.034;7.376;2023-01-30T01:31:47;-1.60;99.90
56374;DHT22;58212;47.034;7.376;2023-01-30T01:34:14;-1.60;99.90
56374;DHT22;58212;47.034;7.376;2023-01-30T01:36:43;-1.60;99.90
56374;DHT22;58212;47.034;7.376;2023-01-30T01:39:11;-1.60;99.90
56374;DHT22;58212;47.034;7.376;2023-01-30T01:41:38;-1.60;99.90
56374;DHT22;58212;47.034;7.376;2023-01-30T01:44:07;-1.50;99.90
56374;DHT22;58212;47.034;7.376;2023-01-30T01:46:37;-1.60;99.90
56374;DHT22;58212;47.034;7.376;2023-01-30T01:49:12;-1.50;99.90
56374;DHT22;58212;47.034;7.376;2023-01-30T01:51:45;-1.70;99.90
56374;DHT22;58212;47.034;7.376;2023-01-30T01:54:19;-1.80;99.90
56374;DHT22;58212;47.034;7.376;2023-01-30T01:56:48;-1.90;99.90
56374;DHT22;58212;47.034;7.376;2023-01-30T01:59:20;-1.90;99.90
56374;DHT22;58212;47.034;7.376;2023-01-30T02:01:59;-1.90;99.90
56374;DHT22;58212;47.034;7.376;2023-01-30T02:04:28;-1.90;99.90
56374;DHT22;58212;47.034;7.376;2023-01-30T02:07:15;-1.90;99.90
56374;DHT22;58212;47.034;7.376;2023-01-30T02:09:48;-1.90;99.90
56374;DHT22;58212;47.034;7.376;2023-01-30T02:12:16;-1.80;99.90
56374;DHT22;58212;47.034;7.376;2023-01-30T02:14:45;-1.80;99.90
56374;DHT22;58212;47.034;7.376;2023-01-30T02:17:12;-1.80;99.90
56374;DHT22;58212;47.034;7.376;2023-01-30T02:19:47;-1.90;99.90
56374;DHT22;58212;47.034;7.376;2023-01-30T02:25:42;-1.70;99.90
56374;DHT22;58212;47.034;7.376;2023-01-30T02:28:47;-1.70;99.90
56374;DHT22;58212;47.034;7.376;2023-01-30T02:31:31;-1.80;99.90
56374;DHT22;58212;47.034;7.376;2023-01-30T02:34:34;-1.80;99.90
56374;DHT22;58212;47.034;7.376;2023-01-30T02:37:39;-1.70;99.90
56374;DHT22;58212;47.034;7.376;2023-01-30T02:40:40;-1.70;99.90
56374;DHT22;58212;47.034;7.376;2023-01-30T02:43:39;-1.70;99.90
56374;DHT22;58212;47.034;7.376;2023-01-30T02:46:41;-1.80;99.90
56374;DHT22;58212;47.034;7.376;2023-01-30T02:53:41;-1.90;99.90
56374;DHT22;58212;47.034;7.376;2023-01-30T02:56:47;-1.90;99.90
56374;DHT22;58212;47.034;7.376;2023-01-30T02:59:44;-2.10;99.90
56374;DHT22;58212;47.034;7.376;2023-01-30T03:02:52;-1.90;99.90
56374;DHT22;58212;47.034;7.376;2023-01-30T03:06:10;-1.80;99.90
56374;DHT22;58212;47.034;7.376;2023-01-30T03:09:12;-1.80;99.90
56374;DHT22;58212;47.034;7.376;2023-01-30T03:12:11;-2.00;99.90
56374;DHT22;58212;47.034;7.376;2023-01-30T03:15:11;-1.80;99.90
56374;DHT22;58212;47.034;7.376;2023-01-30T03:18:06;-1.60;99.90
56374;DHT22;58212;47.034;7.376;2023-01-30T03:20:36;-1.70;99.90
56374;DHT22;58212;47.034;7.376;2023-01-30T03:23:06;-1.60;99.90
56374;DHT22;58212;47.034;7.376;2023-01-30T03:25:37;-1.60;99.90
56374;DHT22;58212;47.034;7.376;2023-01-30T03:28:29;-1.60;99.90
56374;DHT22;58212;47.034;7.376;2023-01-30T03:30:57;-1.70;99.90
56374;DHT22;58212;47.034;7.376;2023-01-30T03:33:26;-2.10;99.90
56374;DHT22;58212;47.034;7.376;2023-01-30T03:36:17;-2.00;99.90
56374;DHT22;58212;47.034;7.376;2023-01-30T03:38:44;-2.00;99.90
56374;DHT22;58212;47.034;7.376;2023-01-30T03:41:11;-1.80;99.90
56374;DHT22;58212;47.034;7.376;2023-01-30T03:43:39;-1.90;99.90
56374;DHT22;58212;47.034;7.376;2023-01-30T03:46:06;-1.70;99.90
56374;DHT22;58212;47.034;7.376;2023-01-30T03:48:34;-1.60;99.90
56374;DHT22;58212;47.034;7.376;2023-01-30T03:51:05;-1.60;99.90
56374;DHT22;58212;47.034;7.376;2023-01-30T03:53:32;-1.70;99.90
56374;DHT22;58212;47.034;7.376;2023-01-30T03:56:00;-1.80;99.90
56374;DHT22;58212;47.034;7.376;2023-01-30T03:58:30;-1.80;99.90
56374;DHT22;58212;47.034;7.376;2023-01-30T04:01:05;-1.60;99.90
56374;DHT22;58212;47.034;7.376;2023-01-30T04:03:34;-1.70;99.90
56374;DHT22;58212;47.034;7.376;2023-01-30T04:06:03;-1.70;99.90
56374;DHT22;58212;47.034;7.376;2023-01-30T04:08:30;-1.60;99.90
56374;DHT22;58212;47.034;7.376;2023-01-30T04:10:58;-1.60;99.90
56374;DHT22;58212;47.034;7.376;2023-01-30T04:13:25;-1.50;99.90
56374;DHT22;58212;47.034;7.376;2023-01-30T04:15:52;-1.50;99.90
56374;DHT22;58212;47.034;7.376;2023-01-30T04:18:19;-1.40;99.90
56374;DHT22;58212;47.034;7.376;2023-01-30T04:20:47;-1.40;99.90
56374;DHT22;58212;47.034;7.376;2023-01-30T04:23:19;-1.50;99.90
56374;DHT22;58212;47.034;7.376;2023-01-30T04:25:46;-1.70;99.90
56374;DHT22;58212;47.034;7.376;2023-01-30T04:28:16;-1.60;99.90
56374;DHT22;58212;47.034;7.376;2023-01-30T04:30:44;-1.60;99.90
56374;DHT22;58212;47.034;7.376;2023-01-30T04:33:29;-1.60;99.90
56374;DHT22;58212;47.034;7.376;2023-01-30T04:36:04;-1.50;99.90
56374;DHT22;58212;47.034;7.376;2023-01-30T04:38:33;-1.40;99.90
56374;DHT22;58212;47.034;7.376;2023-01-30T04:41:01;-1.30;99.90
56374;DHT22;58212;47.034;7.376;2023-01-30T04:43:31;-1.20;99.90
56374;DHT22;58212;47.034;7.376;2023-01-30T04:46:21;-1.30;99.90
56374;DHT22;58212;47.034;7.376;2023-01-30T04:48:48;-1.50;99.90
56374;DHT22;58212;47.034;7.376;2023-01-30T04:51:17;-1.70;99.90
56374;DHT22;58212;47.034;7.376;2023-01-30T04:53:45;-1.80;99.90
56374;DHT22;58212;47.034;7.376;2023-01-30T04:56:12;-1.80;99.90
56374;DHT22;58212;47.034;7.376;2023-01-30T04:59:04;-1.80;99.90
56374;DHT22;58212;47.034;7.376;2023-01-30T05:01:38;-1.70;99.90
56374;DHT22;58212;47.034;7.376;2023-01-30T05:04:06;-1.70;99.90
56374;DHT22;58212;47.034;7.376;2023-01-30T05:06:35;-1.70;99.90
56374;DHT22;58212;47.034;7.376;2023-01-30T05:09:03;-1.70;99.90
56374;DHT22;58212;47.034;7.376;2023-01-30T05:11:31;-1.80;99.90
56374;DHT22;58212;47.034;7.376;2023-01-30T05:13:58;-1.80;99.90
56374;DHT22;58212;47.034;7.376;2023-01-30T05:16:26;-1.80;99.90
56374;DHT22;58212;47.034;7.376;2023-01-30T05:18:54;-1.70;99.90
56374;DHT22;58212;47.034;7.376;2023-01-30T05:21:22;-1.80;99.90
56374;DHT22;58212;47.034;7.376;2023-01-30T05:23:53;-1.90;99.90
56374;DHT22;58212;47.034;7.376;2023-01-30T05:26:21;-2.00;99.90
56374;DHT22;58212;47.034;7.376;2023-01-30T05:28:52;-2.10;99.90
56374;DHT22;58212;47.034;7.376;2023-01-30T05:31:19;-2.10;99.90
56374;DHT22;58212;47.034;7.376;2023-01-30T05:33:50;-2.10;99.90
56374;DHT22;58212;47.034;7.376;2023-01-30T05:36:22;-2.00;99.90
56374;DHT22;58212;47.034;7.376;2023-01-30T05:38:49;-2.10;99.90
56374;DHT22;58212;47.034;7.376;2023-01-30T05:41:17;-2.10;99.90
56374;DHT22;58212;47.034;7.376;2023-01-30T05:43:48;-2.10;99.90
56374;DHT22;58212;47.034;7.376;2023-01-30T05:46:15;-2.20;99.90
56374;DHT22;58212;47.034;7.376;2023-01-30T05:48:44;-2.00;99.90
56374;DHT22;58212;47.034;7.376;2023-01-30T05:51:17;-2.00;99.90
56374;DHT22;58212;47.034;7.376;2023-01-30T05:53:44;-2.00;99.90
56374;DHT22;58212;47.034;7.376;2023-01-30T05:56:11;-2.10;99.90
56374;DHT22;58212;47.034;7.376;2023-01-30T05:58:41;-2.10;99.90
56374;DHT22;58212;47.034;7.376;2023-01-30T06:01:11;-2.00;99.90
56374;DHT22;58212;47.034;7.376;2023-01-30T06:03:42;-2.00;99.90
56374;DHT22;58212;47.034;7.376;2023-01-30T06:06:09;-2.00;99.90
56374;DHT22;58212;47.034;7.376;2023-01-30T06:08:38;-2.00;99.90
56374;DHT22;58212;47.034;7.376;2023-01-30T06:11:07;-2.10;99.90
56374;DHT22;58212;47.034;7.376;2023-01-30T06:13:35;-2.10;99.90
56374;DHT22;58212;47.034;7.376;2023-01-30T06:16:04;-2.00;99.90
56374;DHT22;58212;47.034;7.376;2023-01-30T06:18:31;-1.70;99.90
56374;DHT22;58212;47.034;7.376;2023-01-30T06:20:58;-1.70;99.90
56374;DHT22;58212;47.034;7.376;2023-01-30T06:23:25;-1.80;99.90
56374;DHT22;58212;47.034;7.376;2023-01-30T06:25:52;-2.20;99.90
56374;DHT22;58212;47.034;7.376;2023-01-30T06:28:21;-2.10;99.90
56374;DHT22;58212;47.034;7.376;2023-01-30T06:30:48;-2.20;99.90
56374;DHT22;58212;47.034;7.376;2023-01-30T06:33:17;-1.90;99.90
56374;DHT22;58212;47.034;7.376;2023-01-30T06:35:46;-1.80;99.90
56374;DHT22;58212;47.034;7.376;2023-01-30T06:38:13;-1.70;99.90
56374;DHT22;58212;47.034;7.376;2023-01-30T06:40:43;-1.50;99.90
56374;DHT22;58212;47.034;7.376;2023-01-30T06:43:11;-1.30;99.90
56374;DHT22;58212;47.034;7.376;2023-01-30T06:45:38;-1.30;99.90
56374;DHT22;58212;47.034;7.376;2023-01-30T06:48:05;-1.50;99.90
56374;DHT22;58212;47.034;7.376;2023-01-30T06:50:33;-1.40;99.90
56374;DHT22;58212;47.034;7.376;2023-01-30T06:53:01;-1.30;99.90
56374;DHT22;58212;47.034;7.376;2023-01-30T06:55:32;-1.30;99.90
56374;DHT22;58212;47.034;7.376;2023-01-30T06:58:01;-1.30;99.90
56374;DHT22;58212;47.034;7.376;2023-01-30T07:00:29;-1.30;99.90
56374;DHT22;58212;47.034;7.376;2023-01-30T07:02:56;-1.20;99.90
56374;DHT22;58212;47.034;7.376;2023-01-30T07:05:23;-1.10;99.90
56374;DHT22;58212;47.034;7.376;2023-01-30T07:07:51;-1.10;99.90
56374;DHT22;58212;47.034;7.376;2023-01-30T07:10:18;-1.20;99.90
56374;DHT22;58212;47.034;7.376;2023-01-30T07:12:46;-1.30;99.90
56374;DHT22;58212;47.034;7.376;2023-01-30T07:15:13;-1.10;99.90
56374;DHT22;58212;47.034;7.376;2023-01-30T07:17:41;-1.10;99.90
56374;DHT22;58212;47.034;7.376;2023-01-30T07:20:10;-0.90;99.90
56374;DHT22;58212;47.034;7.376;2023-01-30T07:22:37;-1.00;99.90
56374;DHT22;58212;47.034;7.376;2023-01-30T07:25:06;-1.00;99.90
56374;DHT22;58212;47.034;7.376;2023-01-30T07:27:33;-0.90;99.90
56374;DHT22;58212;47.034;7.376;2023-01-30T07:30:00;-0.90;99.90
56374;DHT22;58212;47.034;7.376;2023-01-30T07:32:27;-1.10;99.90
56374;DHT22;58212;47.034;7.376;2023-01-30T07:34:54;-1.20;99.90
56374;DHT22;58212;47.034;7.376;2023-01-30T07:37:21;-1.20;99.90
56374;DHT22;58212;47.034;7.376;2023-01-30T07:39:48;-1.20;99.90
56374;DHT22;58212;47.034;7.376;2023-01-30T07:42:16;-1.40;99.90
56374;DHT22;58212;47.034;7.376;2023-01-30T07:44:43;-1.40;99.90
56374;DHT22;58212;47.034;7.376;2023-01-30T07:47:10;-1.40;99.90
56374;DHT22;58212;47.034;7.376;2023-01-30T07:49:37;-1.40;99.90
56374;DHT22;58212;47.034;7.376;2023-01-30T07:52:04;-1.50;99.90
56374;DHT22;58212;47.034;7.376;2023-01-30T07:54:31;-1.60;99.90
56374;DHT22;58212;47.034;7.376;2023-01-30T07:56:58;-1.60;99.90
56374;DHT22;58212;47.034;7.376;2023-01-30T07:59:26;-1.60;99.90
56374;DHT22;58212;47.034;7.376;2023-01-30T08:01:54;-1.40;99.90
56374;DHT22;58212;47.034;7.376;2023-01-30T08:04:23;-1.30;99.90
56374;DHT22;58212;47.034;7.376;2023-01-30T08:06:50;-1.20;99.90
56374;DHT22;58212;47.034;7.376;2023-01-30T08:09:20;-1.20;99.90
56374;DHT22;58212;47.034;7.376;2023-01-30T08:11:47;-1.10;99.90
56374;DHT22;58212;47.034;7.376;2023-01-30T08:14:17;-0.90;99.90
56374;DHT22;58212;47.034;7.376;2023-01-30T08:16:45;-0.80;99.90
56374;DHT22;58212;47.034;7.376;2023-01-30T08:19:38;-0.80;99.90
56374;DHT22;58212;47.034;7.376;2023-01-30T08:22:06;-0.70;99.90
56374;DHT22;58212;47.034;7.376;2023-01-30T08:24:33;-0.50;99.90
56374;DHT22;58212;47.034;7.376;2023-01-30T08:27:00;-0.20;99.90
56374;DHT22;58212;47.034;7.376;2023-01-30T08:29:27;0.00;99.90
56374;DHT22;58212;47.034;7.376;2023-01-30T08:31:57;0.20;99.90
56374;DHT22;58212;47.034;7.376;2023-01-30T08:34:26;0.10;99.90
56374;DHT22;58212;47.034;7.376;2023-01-30T08:36:53;0.10;99.90
56374;DHT22;58212;47.034;7.376;2023-01-30T08:39:20;0.20;99.90
56374;DHT22;58212;47.034;7.376;2023-01-30T08:41:47;0.30;99.90
56374;DHT22;58212;47.034;7.376;2023-01-30T08:44:14;0.20;99.90
56374;DHT22;58212;47.034;7.376;2023-01-30T08:46:41;0.20;99.90
56374;DHT22;58212;47.034;7.376;2023-01-30T08:49:10;0.30;99.90
56374;DHT22;58212;47.034;7.376;2023-01-30T08:51:37;0.40;99.90
56374;DHT22;58212;47.034;7.376;2023-01-30T08:54:04;0.50;99.90
56374;DHT22;58212;47.034;7.376;2023-01-30T08:56:35;0.60;99.90
56374;DHT22;58212;47.034;7.376;2023-01-30T08:59:02;0.70;99.90
56374;DHT22;58212;47.034;7.376;2023-01-30T09:01:29;0.70;99.90
56374;DHT22;58212;47.034;7.376;2023-01-30T09:03:59;0.80;99.90
56374;DHT22;58212;47.034;7.376;2023-01-30T09:06:27;0.80;99.90
56374;DHT22;58212;47.034;7.376;2023-01-30T09:08:56;0.70;99.90
56374;DHT22;58212;47.034;7.376;2023-01-30T09:11:24;0.60;99.90
56374;DHT22;58212;47.034;7.376;2023-01-30T09:13:52;0.50;99.90
56374;DHT22;58212;47.034;7.376;2023-01-30T09:16:20;0.60;99.90
56374;DHT22;58212;47.034;7.376;2023-01-30T09:18:47;0.60;99.90
56374;DHT22;58212;47.034;7.376;2023-01-30T09:21:14;0.60;99.90
56374;DHT22;58212;47.034;7.376;2023-01-30T09:23:43;0.70;99.90
56374;DHT22;58212;47.034;7.376;2023-01-30T09:26:11;0.80;99.90
56374;DHT22;58212;47.034;7.376;2023-01-30T09:28:39;0.90;99.90
56374;DHT22;58212;47.034;7.376;2023-01-30T09:31:06;1.20;99.90
56374;DHT22;58212;47.034;7.376;2023-01-30T09:33:33;1.50;99.90
56374;DHT22;58212;47.034;7.376;2023-01-30T09:36:00;1.80;99.90
56374;DHT22;58212;47.034;7.376;2023-01-30T09:38:27;1.60;99.90
56374;DHT22;58212;47.034;7.376;2023-01-30T09:41:06;1.80;99.90
56374;DHT22;58212;47.034;7.376;2023-01-30T09:43:47;2.10;99.90
56374;DHT22;58212;47.034;7.376;2023-01-30T09:46:29;2.40;99.90
56374;DHT22;58212;47.034;7.376;2023-01-30T09:49:06;2.50;99.90
56374;DHT22;58212;47.034;7.376;2023-01-30T09:51:48;2.40;99.90
56374;DHT22;58212;47.034;7.376;2023-01-30T09:54:21;2.60;99.90
56374;DHT22;58212;47.034;7.376;2023-01-30T09:56:57;2.70;99.90
56374;DHT22;58212;47.034;7.376;2023-01-30T09:59:31;2.80;99.90
56374;DHT22;58212;47.034;7.376;2023-01-30T10:02:16;2.90;99.90
56374;DHT22;58212;47.034;7.376;2023-01-30T10:04:48;3.00;99.90
56374;DHT22;58212;47.034;7.376;2023-01-30T10:07:25;3.10;99.90
56374;DHT22;58212;47.034;7.376;2023-01-30T10:10:03;3.00;99.90
56374;DHT22;58212;47.034;7.376;2023-01-30T10:12:45;2.90;99.90
56374;DHT22;58212;47.034;7.376;2023-01-30T10:15:27;3.00;99.90
56374;DHT22;58212;47.034;7.376;2023-01-30T10:18:14;3.00;99.90
56374;DHT22;58212;47.034;7.376;2023-01-30T10:20:47;3.10;99.90
56374;DHT22;58212;47.034;7.376;2023-01-30T10:23:42;2.90;99.90
56374;DHT22;58212;47.034;7.376;2023-01-30T10:26:14;3.30;99.90
56374;DHT22;58212;47.034;7.376;2023-01-30T10:28:55;3.30;99.90
56374;DHT22;58212;47.034;7.376;2023-01-30T10:31:27;3.50;99.90
56374;DHT22;58212;47.034;7.376;2023-01-30T10:33:58;3.60;99.90
56374;DHT22;58212;47.034;7.376;2023-01-30T10:36:32;3.50;99.90
56374;DHT22;58212;47.034;7.376;2023-01-30T10:39:04;3.50;99.90
56374;DHT22;58212;47.034;7.376;2023-01-30T10:41:39;2.70;99.90
56374;DHT22;58212;47.034;7.376;2023-01-30T10:44:13;2.60;99.90
56374;DHT22;58212;47.034;7.376;2023-01-30T10:46:53;2.40;99.90
56374;DHT22;58212;47.034;7.376;2023-01-30T10:49:35;2.40;99.90
56374;DHT22;58212;47.034;7.376;2023-01-30T10:52:11;2.40;99.90
56374;DHT22;58212;47.034;7.376;2023-01-30T10:55:14;2.50;99.90
56374;DHT22;58212;47.034;7.376;2023-01-30T10:57:52;2.90;99.90
56374;DHT22;58212;47.034;7.376;2023-01-30T11:00:27;2.80;99.90
56374;DHT22;58212;47.034;7.376;2023-01-30T11:05:49;3.00;99.90
56374;DHT22;58212;47.034;7.376;2023-01-30T11:08:22;3.10;99.90
56374;DHT22;58212;47.034;7.376;2023-01-30T11:10:49;3.20;99.90
56374;DHT22;58212;47.034;7.376;2023-01-30T11:13:18;3.00;99.90
56374;DHT22;58212;47.034;7.376;2023-01-30T11:15:52;3.00;99.90
56374;DHT22;58212;47.034;7.376;2023-01-30T11:18:22;3.40;99.90
56374;DHT22;58212;47.034;7.376;2023-01-30T11:21:02;3.60;99.90
56374;DHT22;58212;47.034;7.376;2023-01-30T11:23:34;3.60;99.90
56374;DHT22;58212;47.034;7.376;2023-01-30T11:26:02;3.50;99.90
56374;DHT22;58212;47.034;7.376;2023-01-30T11:28:35;3.60;99.90
56374;DHT22;58212;47.034;7.376;2023-01-30T11:31:16;3.50;99.90
56374;DHT22;58212;47.034;7.376;2023-01-30T11:33:43;3.30;99.90
56374;DHT22;58212;47.034;7.376;2023-01-30T11:36:25;3.30;99.90
56374;DHT22;58212;47.034;7.376;2023-01-30T11:38:58;2.90;99.90
56374;DHT22;58212;47.034;7.376;2023-01-30T11:41:25;2.80;99.90
56374;DHT22;58212;47.034;7.376;2023-01-30T11:44:00;2.60;99.90
56374;DHT22;58212;47.034;7.376;2023-01-30T11:46:32;2.60;99.90
56374;DHT22;58212;47.034;7.376;2023-01-30T11:49:30;2.70;99.90
56374;DHT22;58212;47.034;7.376;2023-01-30T11:51:58;2.80;99.90
56374;DHT22;58212;47.034;7.376;2023-01-30T11:54:31;2.80;99.90
56374;DHT22;58212;47.034;7.376;2023-01-30T11:57:02;3.10;99.90
56374;DHT22;58212;47.034;7.376;2023-01-30T11:59:32;3.20;99.90
56374;DHT22;58212;47.034;7.376;2023-01-30T12:02:09;2.80;99.90
56374;DHT22;58212;47.034;7.376;2023-01-30T12:04:42;3.20;99.90
56374;DHT22;58212;47.034;7.376;2023-01-30T12:07:17;3.30;99.90
56374;DHT22;58212;47.034;7.376;2023-01-30T12:09:45;3.20;99.90
56374;DHT22;58212;47.034;7.376;2023-01-30T12:12:30;3.60;99.90
56374;DHT22;58212;47.034;7.376;2023-01-30T12:15:13;3.80;99.90
56374;DHT22;58212;47.034;7.376;2023-01-30T12:17:48;4.00;99.90
56374;DHT22;58212;47.034;7.376;2023-01-30T12:20:22;4.10;99.90
56374;DHT22;58212;47.034;7.376;2023-01-30T12:23:18;3.90;99.90
56374;DHT22;58212;47.034;7.376;2023-01-30T12:25:54;3.80;99.90
56374;DHT22;58212;47.034;7.376;2023-01-30T12:28:29;3.90;99.90
56374;DHT22;58212;47.034;7.376;2023-01-30T12:31:03;3.70;99.90
56374;DHT22;58212;47.034;7.376;2023-01-30T12:33:33;3.50;99.90
56374;DHT22;58212;47.034;7.376;2023-01-30T12:36:08;3.30;99.90
56374;DHT22;58212;47.034;7.376;2023-01-30T12:38:55;3.60;99.90
56374;DHT22;58212;47.034;7.376;2023-01-30T12:41:33;3.90;99.90
56374;DHT22;58212;47.034;7.376;2023-01-30T12:47:34;4.30;99.90
56374;DHT22;58212;47.034;7.376;2023-01-30T12:50:20;4.70;99.90
56374;DHT22;58212;47.034;7.376;2023-01-30T12:53:05;4.90;99.90
56374;DHT22;58212;47.034;7.376;2023-01-30T12:55:42;4.20;99.90
56374;DHT22;58212;47.034;7.376;2023-01-30T12:58:17;4.20;99.90
56374;DHT22;58212;47.034;7.376;2023-01-30T13:03:43;4.20;99.90
56374;DHT22;58212;47.034;7.376;2023-01-30T13:06:27;4.60;99.90
56374;DHT22;58212;47.034;7.376;2023-01-30T13:09:11;4.60;99.90
56374;DHT22;58212;47.034;7.376;2023-01-30T13:11:49;4.60;99.90
56374;DHT22;58212;47.034;7.376;2023-01-30T13:14:26;4.80;99.90
56374;DHT22;58212;47.034;7.376;2023-01-30T13:17:04;5.00;99.90
56374;DHT22;58212;47.034;7.376;2023-01-30T13:19:41;4.50;99.90
56374;DHT22;58212;47.034;7.376;2023-01-30T13:22:18;4.40;99.90
56374;DHT22;58212;47.034;7.376;2023-01-30T13:24:56;4.40;99.90
56374;DHT22;58212;47.034;7.376;2023-01-30T13:27:26;4.40;99.90
56374;DHT22;58212;47.034;7.376;2023-01-30T13:29:55;4.40;99.90
56374;DHT22;58212;47.034;7.376;2023-01-30T13:32:32;4.40;99.90
56374;DHT22;58212;47.034;7.376;2023-01-30T13:35:29;4.40;99.90
56374;DHT22;58212;47.034;7.376;2023-01-30T13:38:02;4.50;99.90
56374;DHT22;58212;47.034;7.376;2023-01-30T13:40:36;4.70;99.90
56374;DHT22;58212;47.034;7.376;2023-01-30T13:43:11;4.60;99.90
56374;DHT22;58212;47.034;7.376;2023-01-30T13:45:44;4.60;99.90
56374;DHT22;58212;47.034;7.376;2023-01-30T13:48:21;4.70;99.90
56374;DHT22;58212;47.034;7.376;2023-01-30T13:51:03;4.50;99.90
56374;DHT22;58212;47.034;7.376;2023-01-30T13:53:40;4.50;99.90
56374;DHT22;58212;47.034;7.376;2023-01-30T13:56:15;4.20;99.90
56374;DHT22;58212;47.034;7.376;2023-01-30T13:58:52;3.70;99.90
56374;DHT22;58212;47.034;7.376;2023-01-30T14:01:21;4.00;99.90
56374;DHT22;58212;47.034;7.376;2023-01-30T14:03:52;3.90;99.90
56374;DHT22;58212;47.034;7.376;2023-01-30T14:06:36;3.80;99.90
56374;DHT22;58212;47.034;7.376;2023-01-30T14:09:18;3.70;99.90
56374;DHT22;58212;47.034;7.376;2023-01-30T14:11:47;3.80;99.90
56374;DHT22;58212;47.034;7.376;2023-01-30T14:14:35;4.10;99.90
56374;DHT22;58212;47.034;7.376;2023-01-30T14:17:10;4.00;99.90
56374;DHT22;58212;47.034;7.376;2023-01-30T14:22:39;4.10;99.90
56374;DHT22;58212;47.034;7.376;2023-01-30T14:25:46;3.90;99.90
56374;DHT22;58212;47.034;7.376;2023-01-30T14:28:47;4.00;99.90
56374;DHT22;58212;47.034;7.376;2023-01-30T14:31:51;4.10;99.90
56374;DHT22;58212;47.034;7.376;2023-01-30T14:34:44;4.00;99.90
56374;DHT22;58212;47.034;7.376;2023-01-30T14:37:45;4.10;99.90
56374;DHT22;58212;47.034;7.376;2023-01-30T14:40:29;4.10;99.90
56374;DHT22;58212;47.034;7.376;2023-01-30T14:48:56;3.90;99.90
56374;DHT22;58212;47.034;7.376;2023-01-30T14:51:50;3.80;99.90
56374;DHT22;58212;47.034;7.376;2023-01-30T14:54:24;3.90;99.90
56374;DHT22;58212;47.034;7.376;2023-01-30T14:56:54;3.90;99.90
56374;DHT22;58212;47.034;7.376;2023-01-30T14:59:25;4.10;99.90
56374;DHT22;58212;47.034;7.376;2023-01-30T15:02:05;4.10;99.90
56374;DHT22;58212;47.034;7.376;2023-01-30T15:04:41;3.80;99.90
56374;DHT22;58212;47.034;7.376;2023-01-30T15:11:09;4.00;99.90
56374;DHT22;58212;47.034;7.376;2023-01-30T15:13:53;4.20;99.90
56374;DHT22;58212;47.034;7.376;2023-01-30T15:16:34;4.20;99.90
56374;DHT22;58212;47.034;7.376;2023-01-30T15:19:17;4.20;99.90
56374;DHT22;58212;47.034;7.376;2023-01-30T15:22:02;4.10;99.90
56374;DHT22;58212;47.034;7.376;2023-01-30T15:24:43;4.10;99.90
56374;DHT22;58212;47.034;7.376;2023-01-30T15:27:22;3.90;99.90
56374;DHT22;58212;47.034;7.376;2023-01-30T15:30:05;3.70;99.90
56374;DHT22;58212;47.034;7.376;2023-01-30T15:32:37;3.80;99.90
56374;DHT22;58212;47.034;7.376;2023-01-30T15:35:20;3.80;99.90
56374;DHT22;58212;47.034;7.376;2023-01-30T15:37:51;3.80;99.90
56374;DHT22;58212;47.034;7.376;2023-01-30T15:40:20;3.90;99.90
56374;DHT22;58212;47.034;7.376;2023-01-30T15:42:50;3.80;99.90
56374;DHT22;58212;47.034;7.376;2023-01-30T15:45:26;3.80;99.90
56374;DHT22;58212;47.034;7.376;2023-01-30T15:48:11;3.80;99.90
56374;DHT22;58212;47.034;7.376;2023-01-30T15:50:47;3.60;99.90
56374;DHT22;58212;47.034;7.376;2023-01-30T15:53:15;3.70;99.90
56374;DHT22;58212;47.034;7.376;2023-01-30T15:55:43;3.80;99.90
56374;DHT22;58212;47.034;7.376;2023-01-30T15:58:17;3.70;99.90
56374;DHT22;58212;47.034;7.376;2023-01-30T16:00:57;3.70;99.90
56374;DHT22;58212;47.034;7.376;2023-01-30T16:03:27;3.80;99.90
56374;DHT22;58212;47.034;7.376;2023-01-30T16:05:56;3.70;99.90
56374;DHT22;58212;47.034;7.376;2023-01-30T16:08:25;3.40;99.90
56374;DHT22;58212;47.034;7.376;2023-01-30T16:10:53;3.50;99.90
56374;DHT22;58212;47.034;7.376;2023-01-30T16:13:22;3.60;99.90
56374;DHT22;58212;47.034;7.376;2023-01-30T16:15:53;3.50;99.90
56374;DHT22;58212;47.034;7.376;2023-01-30T16:18:26;3.50;99.90
56374;DHT22;58212;47.034;7.376;2023-01-30T16:20:57;3.40;99.90
56374;DHT22;58212;47.034;7.376;2023-01-30T16:23:28;3.30;99.90
56374;DHT22;58212;47.034;7.376;2023-01-30T16:25:56;3.40;99.90
56374;DHT22;58212;47.034;7.376;2023-01-30T16:28:28;3.50;99.90
56374;DHT22;58212;47.034;7.376;2023-01-30T16:30:57;3.30;99.90
56374;DHT22;58212;47.034;7.376;2023-01-30T16:33:25;3.30;99.90
56374;DHT22;58212;47.034;7.376;2023-01-30T16:35:57;3.50;99.90
56374;DHT22;58212;47.034;7.376;2023-01-30T16:38:34;3.50;99.90
56374;DHT22;58212;47.034;7.376;2023-01-30T16:41:01;3.40;99.90
56374;DHT22;58212;47.034;7.376;2023-01-30T16:43:31;3.40;99.90
56374;DHT22;58212;47.034;7.376;2023-01-30T16:49:03;3.40;99.90
56374;DHT22;58212;47.034;7.376;2023-01-30T16:51:30;3.40;99.90